createdAt,value
2024-01-20T00:00:40.270Z,99716.59
2024-01-20T00:02:41.957Z,99715.38
2024-01-20T00:04:44.765Z,99713.06
2024-01-20T00:06:46.511Z,99713.22
2024-01-20T00:08:48.048Z,99713.22
2024-01-20T00:10:49.701Z,99722.38
2024-01-20T00:12:51.634Z,99713.88
2024-01-20T00:14:53.223Z,99714.09
2024-01-20T00:16:56.266Z,99710.53
2024-01-20T00:19:00.436Z,99702.78
2024-01-20T00:21:01.991Z,99706.19
2024-01-20T00:23:03.638Z,99713.44
2024-01-20T00:25:05.561Z,99706.34
2024-01-20T00:27:07.082Z,99708.88
2024-01-20T00:29:08.896Z,99710.38
2024-01-20T00:31:10.490Z,99707.66
2024-01-20T00:33:12.870Z,99703.66
2024-01-20T00:35:14.589Z,99713.59
2024-01-20T00:37:16.064Z,99712.78
2024-01-20T00:39:17.583Z,99722.75
2024-01-20T00:41:22.546Z,99724.78
2024-01-20T00:43:24.336Z,99732.22
2024-01-20T00:45:25.851Z,99729.50
2024-01-20T00:47:27.371Z,99723.09
2024-01-20T00:49:28.999Z,99722.25
2024-01-20T00:51:30.473Z,99727.66
2024-01-20T00:53:32.171Z,99716.00
2024-01-20T00:55:33.653Z,99717.69
2024-01-20T00:57:35.480Z,99719.56
2024-01-20T00:59:37.035Z,99721.41
2024-01-20T01:01:38.697Z,99730.56
2024-01-20T01:03:40.996Z,99736.31
2024-01-20T01:05:42.496Z,99733.59
2024-01-20T01:07:44.510Z,99727.56
2024-01-20T01:09:45.972Z,99730.91
2024-01-20T01:11:47.447Z,99728.41
2024-01-20T01:13:48.958Z,99732.75
2024-01-20T01:15:50.469Z,99738.16
2024-01-20T01:17:51.927Z,99742.91
2024-01-20T01:19:53.540Z,99735.00
2024-01-20T01:21:55.177Z,99740.41
2024-01-20T01:23:56.916Z,99738.72
2024-01-20T01:25:58.445Z,99736.84
2024-01-20T01:28:00.002Z,99746.63
2024-01-20T01:30:01.535Z,99754.91
2024-01-20T01:32:03.420Z,99756.59
2024-01-20T01:34:04.991Z,99763.84
2024-01-20T01:36:07.160Z,99763.66
2024-01-20T01:38:08.766Z,99769.72
2024-01-20T01:40:10.762Z,99768.22
2024-01-20T01:42:12.714Z,99770.25
2024-01-20T01:44:14.328Z,99776.50
2024-01-20T01:46:15.997Z,99772.13
2024-01-20T01:48:17.702Z,99768.41
2024-01-20T01:50:19.829Z,99767.56
2024-01-20T01:52:23.332Z,99771.31
2024-01-20T01:54:25.812Z,99773.16
2024-01-20T01:56:27.986Z,99778.34
2024-01-20T01:58:29.786Z,99781.25
2024-01-20T02:00:31.420Z,99780.59
2024-01-20T02:02:32.906Z,99784.50
2024-01-20T02:04:34.413Z,99788.41
2024-01-20T02:06:36.033Z,99787.72
2024-01-20T02:08:40.732Z,99788.41
2024-01-20T02:10:49.273Z,99785.22
2024-01-20T02:12:51.091Z,99787.91
2024-01-20T02:14:52.911Z,99796.19
2024-01-20T02:16:54.407Z,99806.16
2024-01-20T02:19:03.345Z,99794.84
2024-01-20T02:21:08.141Z,99789.47
2024-01-20T02:23:09.593Z,99791.50
2024-01-20T02:25:11.407Z,99786.09
2024-01-20T02:27:12.969Z,99790.00
2024-01-20T02:29:14.464Z,99796.41
2024-01-20T02:31:15.909Z,99800.31
2024-01-20T02:33:17.483Z,99795.09
2024-01-20T02:35:22.288Z,99801.50
2024-01-20T02:37:23.809Z,99799.66
2024-01-20T02:39:25.512Z,99795.44
2024-01-20T02:41:31.674Z,99803.91
2024-01-20T02:43:33.150Z,99790.41
2024-01-20T02:45:34.666Z,99792.44
2024-01-20T02:47:36.328Z,99790.78
2024-01-20T02:49:37.944Z,99790.78
2024-01-20T02:51:39.497Z,99806.13
2024-01-20T02:53:40.960Z,99802.78
2024-01-20T02:55:42.511Z,99797.72
2024-01-20T02:57:48.401Z,99805.81
2024-01-20T02:59:49.990Z,99813.91
2024-01-20T03:01:51.732Z,99815.56
2024-01-20T03:03:53.312Z,99813.91
2024-01-20T03:05:54.909Z,99815.97
2024-01-20T03:07:56.433Z,99817.97
2024-01-20T03:09:57.917Z,99819.84
2024-01-20T03:12:00.134Z,99824.56
2024-01-20T03:14:01.721Z,99822.06
2024-01-20T03:16:03.196Z,99816.81
2024-01-20T03:18:05.052Z,99816.00
2024-01-20T03:20:07.364Z,99819.50
2024-01-20T03:22:27.483Z,99817.19
2024-01-20T03:24:29.837Z,99830.50
2024-01-20T03:26:31.493Z,99831.50
2024-01-20T03:28:33.015Z,99831.50
2024-01-20T03:30:34.516Z,99837.06
2024-01-20T03:32:36.020Z,99842.47
2024-01-20T03:34:38.117Z,99838.28
2024-01-20T03:36:40.737Z,99835.91
2024-01-20T03:38:42.321Z,99848.75
2024-01-20T03:40:44.818Z,99840.84
2024-01-20T03:42:46.396Z,99848.09
2024-01-20T03:44:47.913Z,99844.72
2024-01-20T03:46:49.460Z,99851.13
2024-01-20T03:48:51.068Z,99847.59
2024-01-20T03:50:52.577Z,99846.72
2024-01-20T03:52:54.074Z,99847.78
2024-01-20T03:54:55.544Z,99849.63
2024-01-20T03:56:57.057Z,99834.28
2024-01-20T03:58:59.351Z,99845.22
2024-01-20T04:01:00.926Z,99838.34
2024-01-20T04:03:04.124Z,99845.41
2024-01-20T04:05:06.252Z,99841.88
2024-01-20T04:07:07.824Z,99845.75
2024-01-20T04:09:09.364Z,99847.78
2024-01-20T04:11:10.853Z,99845.94
2024-01-20T04:13:12.323Z,99850.31
2024-01-20T04:15:13.861Z,99845.94
2024-01-20T04:17:15.434Z,99851.50
2024-01-20T04:19:16.960Z,99855.88
2024-01-20T04:21:18.754Z,99855.03
2024-01-20T04:23:20.232Z,99856.53
2024-01-20T04:25:21.725Z,99854.69
2024-01-20T04:27:23.254Z,99851.16
2024-01-20T04:29:24.762Z,99856.72
2024-01-20T04:31:26.380Z,99860.44
2024-01-20T04:33:27.992Z,99857.56
2024-01-20T04:35:29.581Z,99855.88
2024-01-20T04:37:31.143Z,99864.97
2024-01-20T04:39:32.866Z,99864.16
2024-01-20T04:41:34.455Z,99871.41
2024-01-20T04:43:35.923Z,99868.03
2024-01-20T04:45:37.494Z,99869.72
2024-01-20T04:47:39.024Z,99873.44
2024-01-20T04:49:40.681Z,99868.19
2024-01-20T04:51:42.346Z,99866.34
2024-01-20T04:53:44.137Z,99861.97
2024-01-20T04:55:45.688Z,99863.84
2024-01-20T04:57:47.204Z,99864.66
2024-01-20T04:59:49.109Z,99865.50
2024-01-20T05:01:50.669Z,99873.06
2024-01-20T05:03:52.533Z,99874.09
2024-01-20T05:05:54.278Z,99876.13
2024-01-20T05:07:55.800Z,99880.69
2024-01-20T05:09:57.722Z,99886.91
2024-01-20T05:11:59.539Z,99889.59
2024-01-20T05:14:01.121Z,99887.72
2024-01-20T05:16:02.604Z,99902.38
2024-01-20T05:18:04.399Z,99898.88
2024-01-20T05:20:06.826Z,99906.13
2024-01-20T05:22:08.358Z,99907.97
2024-01-20T05:24:11.321Z,99903.44
2024-01-20T05:26:12.857Z,99912.50
2024-01-20T05:28:14.421Z,99914.38
2024-01-20T05:30:16.157Z,99917.06
2024-01-20T05:32:18.158Z,99915.22
2024-01-20T05:34:19.750Z,99918.94
2024-01-20T05:36:21.304Z,99919.09
2024-01-20T05:38:22.923Z,99919.94
2024-01-20T05:40:24.526Z,99920.94
2024-01-20T05:42:26.062Z,99935.44
2024-01-20T05:44:28.920Z,99933.59
2024-01-20T05:46:34.339Z,99946.03
2024-01-20T05:48:36.434Z,99950.59
2024-01-20T05:50:38.393Z,99947.88
2024-01-20T05:52:39.931Z,99946.03
2024-01-20T05:54:41.471Z,99951.63
2024-01-20T05:56:43.071Z,99951.63
2024-01-20T05:58:44.886Z,99959.69
2024-01-20T06:00:46.453Z,99961.38
2024-01-20T06:02:48.100Z,99964.06
2024-01-20T06:04:49.682Z,99971.34
2024-01-20T06:06:51.205Z,99974.84
2024-01-20T06:08:52.888Z,99979.41
2024-01-20T06:10:54.446Z,99972.16
2024-01-20T06:12:55.944Z,99975.03
2024-01-20T06:14:57.483Z,99973.31
2024-01-20T06:16:58.998Z,99970.16
2024-01-20T06:19:00.663Z,99967.63
2024-01-20T06:21:02.243Z,99972.19
2024-01-20T06:23:04.017Z,99965.94
2024-01-20T06:25:06.046Z,99968.78
2024-01-20T06:27:07.590Z,99965.09
2024-01-20T06:29:09.108Z,99971.34
2024-01-20T06:31:11.913Z,99973.19
2024-01-20T06:33:13.702Z,99970.66
2024-01-20T06:35:15.404Z,99969.81
2024-01-20T06:37:16.902Z,99977.91
2024-01-20T06:39:18.651Z,99966.28
2024-01-20T06:41:20.292Z,99969.97
2024-01-20T06:43:21.770Z,99974.38
2024-01-20T06:45:23.370Z,99978.75
2024-01-20T06:47:27.130Z,99983.44
2024-01-20T06:49:28.817Z,99997.09
2024-01-20T06:51:30.446Z,99994.22
2024-01-20T06:53:33.017Z,100005.19
2024-01-20T06:55:34.524Z,100018.00
2024-01-20T06:57:35.997Z,100010.91
2024-01-20T06:59:38.339Z,100015.63
2024-01-20T07:01:39.825Z,100021.88
2024-01-20T07:03:41.364Z,100016.63
2024-01-20T07:05:43.115Z,100015.63
2024-01-20T07:07:44.668Z,100013.78
2024-01-20T07:09:47.110Z,100012.94
2024-01-20T07:11:48.711Z,100019.19
2024-01-20T07:13:50.271Z,100012.75
2024-01-20T07:15:51.747Z,100016.47
2024-01-20T07:17:57.113Z,100027.41
2024-01-20T07:19:59.301Z,100027.41
2024-01-20T07:22:00.826Z,100033.81
2024-01-20T07:24:02.338Z,100036.34
2024-01-20T07:26:04.250Z,100039.03
2024-01-20T07:28:05.874Z,100037.53
2024-01-20T07:30:08.480Z,100038.56
2024-01-20T07:32:09.985Z,100048.28
2024-01-20T07:34:11.606Z,100051.16
2024-01-20T07:36:13.217Z,100055.03
2024-01-20T07:38:17.324Z,100057.56
2024-01-20T07:40:18.758Z,100053.03
2024-01-20T07:42:20.255Z,100048.63
2024-01-20T07:44:21.814Z,100061.44
2024-01-20T07:46:26.607Z,100052.69
2024-01-20T07:51:51.608Z,100049.47
2024-01-20T07:54:26.840Z,100045.78
2024-01-20T07:56:41.848Z,100049.66
2024-01-20T08:01:44.596Z,100064.16
2024-01-20T08:06:40.910Z,100072.88
2024-01-20T08:08:49.823Z,100071.22
2024-01-20T08:11:13.379Z,100075.09
2024-01-20T08:13:28.371Z,100076.28
2024-01-20T08:15:37.659Z,100071.03
2024-01-20T08:17:46.723Z,100076.59
2024-01-20T08:19:50.196Z,100080.63
2024-01-20T08:21:56.090Z,100078.13
2024-01-20T08:23:57.928Z,100073.91
2024-01-20T08:26:09.159Z,100082.66
2024-01-20T08:28:12.605Z,100087.03
2024-01-20T08:33:43.214Z,100098.47
2024-01-20T08:36:05.101Z,100094.09
2024-01-20T08:44:09.325Z,100099.34
2024-01-20T08:46:11.595Z,100100.84
2024-01-20T08:48:14.559Z,100102.16
2024-01-20T08:50:16.092Z,100103.19
2024-01-20T08:55:15.668Z,100102.53
2024-01-20T08:57:33.570Z,100097.94
2024-01-20T08:59:35.118Z,100100.66
2024-01-20T09:01:36.620Z,100106.22
2024-01-20T09:03:38.514Z,100115.66
2024-01-20T09:05:42.200Z,100112.25
2024-01-20T09:07:43.683Z,100128.25
2024-01-20T09:09:45.383Z,100127.41
2024-01-20T09:11:46.846Z,100128.75
2024-01-20T09:13:48.365Z,100135.00
2024-01-20T09:15:49.944Z,100135.84
2024-01-20T09:17:51.593Z,100142.22
2024-01-20T09:19:53.361Z,100134.16
2024-01-20T09:21:54.955Z,100138.53
2024-01-20T09:23:56.471Z,100136.38
2024-01-20T09:25:58.525Z,100137.19
2024-01-20T09:28:01.240Z,100142.09
2024-01-20T09:30:02.934Z,100146.31
2024-01-20T09:32:05.469Z,100147.84
2024-01-20T09:34:07.283Z,100150.69
2024-01-20T09:36:08.961Z,100150.53
2024-01-20T09:38:10.659Z,100153.91
2024-01-20T09:40:13.733Z,100159.13
2024-01-20T09:42:16.560Z,100152.56
2024-01-20T09:44:19.155Z,100152.03
2024-01-20T09:46:20.897Z,100152.75
2024-01-20T09:48:22.581Z,100157.28
2024-01-20T09:50:24.152Z,100159.81
2024-01-20T09:52:29.789Z,100150.06
2024-01-20T09:54:32.245Z,100163.88
2024-01-20T09:56:33.952Z,100153.09
2024-01-20T09:58:36.548Z,100158.63
2024-01-20T10:00:39.964Z,100165.19
2024-01-20T10:02:45.010Z,100167.91
2024-01-20T10:04:50.054Z,100166.91
2024-01-20T10:06:52.659Z,100166.72
2024-01-20T10:08:54.245Z,100171.97
2024-01-20T10:11:04.645Z,100163.88
2024-01-20T10:13:06.176Z,100164.38
2024-01-20T10:15:08.010Z,100156.13
2024-01-20T10:17:09.482Z,100164.03
2024-01-20T10:19:10.994Z,100154.97
2024-01-20T10:21:12.501Z,100153.06
2024-01-20T10:23:14.007Z,100154.78
2024-01-20T10:25:20.473Z,100155.63
2024-01-20T10:27:26.657Z,100152.75
2024-01-20T10:29:30.089Z,100149.22
2024-01-20T10:31:32.859Z,100146.50
2024-01-20T10:33:34.468Z,100140.97
2024-01-20T10:35:36.055Z,100138.28
2024-01-20T10:37:41.591Z,100143.34
2024-01-20T10:39:44.951Z,100144.84
2024-01-20T10:41:48.005Z,100142.97
2024-01-20T10:43:58.224Z,100151.78
2024-01-20T10:46:23.270Z,100154.28
2024-01-20T10:48:33.748Z,100149.41
2024-01-20T10:50:38.094Z,100140.97
2024-01-20T10:52:40.060Z,100135.41
2024-01-20T10:54:43.274Z,100133.38
2024-01-20T10:56:45.122Z,100125.97
2024-01-20T10:58:52.004Z,100129.50
2024-01-20T11:00:54.663Z,100135.56
2024-01-20T11:02:56.487Z,100132.53
2024-01-20T11:04:58.036Z,100136.59
2024-01-20T11:07:00.456Z,100127.16
2024-01-20T11:09:03.267Z,100128.66
2024-01-20T11:11:10.819Z,100119.72
2024-01-20T11:13:14.445Z,100122.75
2024-01-20T11:15:18.139Z,100128.66
2024-01-20T11:17:19.898Z,100122.09
2024-01-20T11:19:21.403Z,100116.34
2024-01-20T11:21:23.181Z,100116.16
2024-01-20T11:23:28.072Z,100114.78
2024-01-20T11:25:32.716Z,100119.00
2024-01-20T11:27:58.176Z,100124.91
2024-01-20T11:30:07.105Z,100123.06
2024-01-20T11:32:08.921Z,100128.94
2024-01-20T11:34:10.511Z,100120.69
2024-01-20T11:36:14.220Z,100117.66
2024-01-20T11:38:16.498Z,100106.50
2024-01-20T11:40:18.045Z,100108.19
2024-01-20T11:42:21.003Z,100106.16
2024-01-20T11:44:22.468Z,100121.16
2024-01-20T11:46:24.301Z,100127.53
2024-01-20T11:48:26.720Z,100115.72
2024-01-20T11:50:28.800Z,100116.81
2024-01-20T11:52:30.301Z,100115.06
2024-01-20T11:54:31.868Z,100126.00
2024-01-20T11:56:33.366Z,100117.78
2024-01-20T11:58:34.883Z,100107.53
2024-01-20T12:00:36.498Z,100117.06
2024-01-20T12:02:38.292Z,100105.72
2024-01-20T12:04:39.984Z,100102.19
2024-01-20T12:06:42.281Z,100093.38
2024-01-20T12:08:46.093Z,100085.53
2024-01-20T12:10:47.808Z,100085.63
2024-01-20T12:12:49.312Z,100084.88
2024-01-20T12:14:51.181Z,100081.38
2024-01-20T12:16:52.735Z,100073.94
2024-01-20T12:18:55.367Z,100079.19
2024-01-20T12:20:56.968Z,100075.63
2024-01-20T12:23:01.762Z,100080.00
2024-01-20T12:25:03.835Z,100064.50
2024-01-20T12:27:05.847Z,100064.25
2024-01-20T12:29:07.841Z,100055.44
2024-01-20T12:31:11.280Z,100049.88
2024-01-20T12:33:13.576Z,100055.38
2024-01-20T12:35:16.031Z,100053.59
2024-01-20T12:37:17.533Z,100046.53
2024-01-20T12:39:19.694Z,100045.72
2024-01-20T12:41:21.266Z,100045.75
2024-01-20T12:43:22.825Z,100043.66
2024-01-20T12:45:24.351Z,100038.41
2024-01-20T12:47:25.926Z,100038.81
2024-01-20T12:49:27.517Z,100032.72
2024-01-20T12:51:29.206Z,100022.41
2024-01-20T12:53:30.671Z,100028.44
2024-01-20T12:55:32.631Z,100026.28
2024-01-20T12:57:34.683Z,100027.88
2024-01-20T12:59:36.380Z,100017.75
2024-01-20T13:01:37.872Z,100017.44
2024-01-20T13:03:39.455Z,100022.19
2024-01-20T13:05:41.085Z,100015.41
2024-01-20T13:07:42.891Z,100014.06
2024-01-20T13:09:44.477Z,100010.22
2024-01-20T13:11:45.969Z,100017.53
2024-01-20T13:13:48.697Z,100008.50
2024-01-20T13:15:50.424Z,100005.94
2024-01-20T13:17:51.951Z,100003.56
2024-01-20T13:19:53.479Z,100005.88
2024-01-20T13:21:55.681Z,100016.56
2024-01-20T13:23:57.334Z,100005.44
2024-01-20T13:25:58.911Z,100004.59
2024-01-20T13:28:01.443Z,100004.81
2024-01-20T13:30:03.011Z,100005.63
2024-01-20T13:32:05.234Z,100010.28
2024-01-20T13:34:06.774Z,100018.47
2024-01-20T13:36:08.378Z,100014.66
2024-01-20T13:38:09.887Z,100015.28
2024-01-20T13:40:12.260Z,100018.84
2024-01-20T13:42:13.827Z,100008.38
2024-01-20T13:44:15.357Z,100015.94
2024-01-20T13:46:17.092Z,100018.09
2024-01-20T13:48:19.230Z,100015.59
2024-01-20T13:50:20.832Z,100013.28
2024-01-20T13:52:22.391Z,100016.03
2024-01-20T13:54:23.917Z,100007.84
2024-01-20T13:56:26.792Z,100016.03
2024-01-20T13:58:28.370Z,100025.66
2024-01-20T14:00:31.329Z,100024.38
2024-01-20T14:02:32.870Z,100030.47
2024-01-20T14:04:34.335Z,100020.13
2024-01-20T14:06:35.991Z,100026.22
2024-01-20T14:08:37.503Z,100023.28
2024-01-20T14:10:38.982Z,100017.56
2024-01-20T14:12:40.545Z,100019.84
2024-01-20T14:14:42.090Z,100015.25
2024-01-20T14:16:55.098Z,100017.13
2024-01-20T14:18:57.514Z,100009.97
2024-01-20T14:20:59.108Z,100013.56
2024-01-20T14:23:00.752Z,100018.81
2024-01-20T14:25:04.761Z,100015.44
2024-01-20T14:27:07.901Z,100031.41
2024-01-20T14:29:10.142Z,100024.03
2024-01-20T14:31:12.924Z,100022.16
2024-01-20T14:33:14.625Z,100022.50
2024-01-20T14:35:19.040Z,100020.63
2024-01-20T14:37:20.544Z,100017.44
2024-01-20T14:39:28.081Z,100020.19
2024-01-20T14:41:31.316Z,100019.94
2024-01-20T14:43:32.831Z,100019.75
2024-01-20T14:45:34.454Z,100017.63
2024-01-20T14:47:36.505Z,100010.25
2024-01-20T14:52:28.428Z,100018.22
2024-01-20T14:54:36.642Z,100010.00
2024-01-20T14:56:41.154Z,100018.81
2024-01-20T14:58:42.688Z,100016.94
2024-01-20T15:00:46.496Z,100015.44
2024-01-20T15:02:48.063Z,100020.06
2024-01-20T15:04:53.816Z,100022.56
2024-01-20T15:06:55.419Z,100021.72
2024-01-20T15:08:57.829Z,100025.28
2024-01-20T15:10:59.427Z,100026.13
2024-01-20T15:13:00.930Z,100027.81
2024-01-20T15:15:02.481Z,100033.28
2024-01-20T15:17:04.097Z,100027.81
2024-01-20T15:19:06.983Z,100025.28
2024-01-20T15:21:08.831Z,100026.38
2024-01-20T15:23:12.927Z,100018.16
2024-01-20T15:25:16.688Z,100023.84
2024-01-20T15:27:18.916Z,100020.50
2024-01-20T15:29:23.126Z,100023.47
2024-01-20T15:31:25.318Z,100023.94
2024-01-20T15:33:26.915Z,100025.56
2024-01-20T15:35:31.372Z,100028.78
2024-01-20T15:37:32.876Z,100028.78
2024-01-20T15:39:34.556Z,100037.19
2024-01-20T15:41:36.091Z,100025.03
2024-01-20T15:43:37.621Z,100030.34
2024-01-20T15:45:39.595Z,100031.03
2024-01-20T15:47:41.246Z,100036.94
2024-01-20T15:49:44.285Z,100034.41
2024-01-20T15:51:50.419Z,100040.34
2024-01-20T15:53:57.898Z,100044.34
2024-01-20T15:55:59.781Z,100044.56
2024-01-20T15:58:01.298Z,100048.38
2024-01-20T16:00:06.947Z,100054.28
2024-01-20T16:02:11.629Z,100058.50
2024-01-20T16:04:14.319Z,100049.69
2024-01-20T16:06:16.029Z,100059.16
2024-01-20T16:08:17.621Z,100054.94
2024-01-20T16:10:19.096Z,100060.84
2024-01-20T16:12:23.738Z,100061.31
2024-01-20T16:14:27.229Z,100066.13
2024-01-20T16:16:29.765Z,100072.03
2024-01-20T16:18:31.389Z,100070.38
2024-01-20T16:20:33.326Z,100074.16
2024-01-20T16:22:34.969Z,100073.97
2024-01-20T16:24:36.529Z,100083.06
2024-01-20T16:26:38.017Z,100089.38
2024-01-20T16:28:40.336Z,100094.66
2024-01-20T16:30:41.862Z,100090.91
2024-01-20T16:32:43.424Z,100101.22
2024-01-20T16:34:44.962Z,100099.75
2024-01-20T16:36:49.052Z,100104.19
2024-01-20T16:38:51.006Z,100107.56
2024-01-20T16:40:52.477Z,100104.44
2024-01-20T16:42:54.091Z,100104.22
2024-01-20T16:44:55.655Z,100101.72
2024-01-20T16:46:57.243Z,100100.03
2024-01-20T16:48:58.830Z,100099.44
2024-01-20T16:51:01.267Z,100100.69
2024-01-20T16:53:03.869Z,100097.59
2024-01-20T16:55:14.923Z,100094.84
2024-01-20T16:57:20.722Z,100081.22
2024-01-20T16:59:25.517Z,100088.56
2024-01-20T17:01:27.068Z,100088.56
2024-01-20T17:03:28.958Z,100083.94
2024-01-20T17:05:32.364Z,100087.47
2024-01-20T17:07:36.542Z,100079.31
2024-01-20T17:09:40.295Z,100081.63
2024-01-20T17:11:45.514Z,100083.75
2024-01-20T17:13:49.979Z,100087.28
2024-01-20T17:15:51.948Z,100085.41
2024-01-20T17:17:53.678Z,100076.38
2024-01-20T17:19:55.417Z,100077.22
2024-01-20T17:21:57.091Z,100075.34
2024-01-20T17:23:58.561Z,100080.19
2024-01-20T17:26:00.281Z,100072.00
2024-01-20T17:28:01.784Z,100073.25
2024-01-20T17:30:04.886Z,100078.72
2024-01-20T17:32:06.964Z,100084.59
2024-01-20T17:34:11.549Z,100078.53
2024-01-20T17:36:13.296Z,100075.19
2024-01-20T17:38:15.005Z,100079.81
2024-01-20T17:40:19.158Z,100084.63
2024-01-20T17:42:20.923Z,100088.41
2024-01-20T17:44:22.508Z,100083.19
2024-01-20T17:46:24.020Z,100094.28
2024-01-20T17:48:26.736Z,100096.16
2024-01-20T17:50:28.337Z,100102.69
2024-01-20T17:52:30.936Z,100099.97
2024-01-20T17:54:33.197Z,100102.69
2024-01-20T17:56:39.532Z,100101.63
2024-01-20T17:58:41.051Z,100103.53
2024-01-20T18:00:42.603Z,100094.50
2024-01-20T18:02:46.924Z,100095.53
2024-01-20T18:04:48.499Z,100090.09
2024-01-20T18:06:50.662Z,100097.44
2024-01-20T18:08:52.374Z,100096.63
2024-01-20T18:10:55.162Z,100098.69
2024-01-20T18:12:57.335Z,100092.63
2024-01-20T18:14:58.829Z,100093.50
2024-01-20T18:17:02.110Z,100090.56
2024-01-20T18:19:03.651Z,100089.31
2024-01-20T18:21:05.305Z,100092.69
2024-01-20T18:23:06.822Z,100094.34
2024-01-20T18:25:08.388Z,100093.31
2024-01-20T18:27:09.937Z,100091.22
2024-01-20T18:29:13.787Z,100091.63
2024-01-20T18:31:15.437Z,100098.34
2024-01-20T18:33:17.636Z,100100.47
2024-01-20T18:35:19.414Z,100099.59
2024-01-20T18:37:20.909Z,100102.56
2024-01-20T18:39:22.432Z,100113.66
2024-01-20T18:41:25.154Z,100103.81
2024-01-20T18:43:26.676Z,100105.69
2024-01-20T18:45:28.252Z,100116.16
2024-01-20T18:47:29.767Z,100115.31
2024-01-20T18:49:31.522Z,100111.75
2024-01-20T18:51:33.232Z,100107.34
2024-01-20T18:53:34.746Z,100110.91
2024-01-20T18:55:36.230Z,100110.91
2024-01-20T18:57:38.561Z,100111.13
2024-01-20T18:59:41.910Z,100109.66
2024-01-20T19:01:43.488Z,100119.91
2024-01-20T19:03:45.493Z,100122.84
2024-01-20T19:05:47.033Z,100120.34
2024-01-20T19:07:50.150Z,100117.81
2024-01-20T19:09:51.687Z,100124.53
2024-01-20T19:11:53.211Z,100130.38
2024-01-20T19:13:57.335Z,100134.38
2024-01-20T19:15:59.059Z,100126.63
2024-01-20T19:18:00.737Z,100115.94
2024-01-20T19:20:02.330Z,100112.34
2024-01-20T19:22:03.858Z,100103.56
2024-01-20T19:24:11.747Z,100103.56
2024-01-20T19:26:13.359Z,100105.66
2024-01-20T19:28:15.270Z,100108.59
2024-01-20T19:30:17.029Z,100108.78
2024-01-20T19:32:18.572Z,100114.47
2024-01-20T19:34:20.891Z,100111.13
2024-01-20T19:36:23.451Z,100111.72
2024-01-20T19:38:29.096Z,100114.44
2024-01-20T19:40:30.991Z,100120.31
2024-01-20T19:42:32.615Z,100114.03
2024-01-20T19:44:34.229Z,100110.69
2024-01-20T19:46:40.690Z,100108.78
2024-01-20T19:48:42.649Z,100108.16
2024-01-20T19:50:47.721Z,100115.28
2024-01-20T19:52:49.338Z,100112.75
2024-01-20T19:54:53.313Z,100109.22
2024-01-20T19:56:56.121Z,100112.75
2024-01-20T19:59:00.330Z,100112.75
2024-01-20T20:01:01.966Z,100110.03
2024-01-20T20:03:04.087Z,100114.22
2024-01-20T20:05:06.878Z,100113.41
2024-01-20T20:07:11.722Z,100116.94
2024-01-20T20:09:14.377Z,100120.50
2024-01-20T20:11:18.169Z,100110.47
2024-01-20T20:13:21.335Z,100115.50
2024-01-20T20:15:24.934Z,100119.06
2024-01-20T20:17:26.504Z,100119.06
2024-01-20T20:19:28.048Z,100120.31
2024-01-20T20:21:32.516Z,100119.47
2024-01-20T20:23:36.409Z,100118.41
2024-01-20T20:25:37.965Z,100111.50
2024-01-20T20:27:42.265Z,100122.38
2024-01-20T20:29:44.107Z,100116.13
2024-01-20T20:31:45.587Z,100117.38
2024-01-20T20:33:47.901Z,100111.28
2024-01-20T20:35:49.494Z,100112.53
2024-01-20T20:37:51.090Z,100115.03
2024-01-20T20:39:53.140Z,100111.91
2024-01-20T20:41:55.261Z,100118.16
2024-01-20T20:43:56.789Z,100113.13
2024-01-20T20:45:58.334Z,100109.78
2024-01-20T20:48:00.411Z,100110.16
2024-01-20T20:50:05.115Z,100105.16
2024-01-20T20:52:06.849Z,100108.28
2024-01-20T20:54:08.427Z,100108.69
2024-01-20T20:56:10.181Z,100113.50
2024-01-20T20:58:11.668Z,100115.16
2024-01-20T21:00:16.845Z,100115.16
2024-01-20T21:02:18.818Z,100108.91
2024-01-20T21:04:20.459Z,100117.06
2024-01-20T21:06:22.073Z,100109.09
2024-01-20T21:08:23.616Z,100101.16
2024-01-20T21:10:25.454Z,100104.06
2024-01-20T21:12:27.785Z,100103.84
2024-01-20T21:14:29.435Z,100099.84
2024-01-20T21:16:30.956Z,100104.03
2024-01-20T21:18:33.225Z,100091.69
2024-01-20T21:20:35.071Z,100092.94
2024-01-20T21:22:37.151Z,100091.25
2024-01-20T21:24:38.712Z,100102.13
2024-01-20T21:26:40.374Z,100090.84
2024-01-20T21:28:42.069Z,100090.44
2024-01-20T21:30:44.001Z,100084.56
2024-01-20T21:32:46.295Z,100081.25
2024-01-20T21:34:51.375Z,100080.81
2024-01-20T21:36:53.354Z,100073.72
2024-01-20T21:38:54.859Z,100071.03
2024-01-20T21:40:57.990Z,100071.03
2024-01-20T21:42:59.737Z,100064.13
2024-01-20T21:45:01.392Z,100059.53
2024-01-20T21:47:06.404Z,100056.63
2024-01-20T21:49:08.097Z,100058.50
2024-01-20T21:51:09.740Z,100063.72
2024-01-20T21:53:11.329Z,100067.50
2024-01-20T21:55:13.276Z,100062.88
2024-01-20T21:57:14.917Z,100066.44
2024-01-20T21:59:16.470Z,100066.66
2024-01-20T22:01:18.291Z,100057.66
2024-01-20T22:03:19.875Z,100065.19
2024-01-20T22:05:21.848Z,100065.59
2024-01-20T22:07:23.583Z,100054.28
2024-01-20T22:09:25.114Z,100062.03
2024-01-20T22:11:28.563Z,100062.44
2024-01-20T22:13:30.812Z,100072.47
2024-01-20T22:15:32.564Z,100068.28
2024-01-20T22:17:55.375Z,100070.16
2024-01-20T22:19:58.863Z,100068.09
2024-01-20T22:22:00.358Z,100072.28
2024-01-20T22:24:01.824Z,100064.13
2024-01-20T22:26:03.354Z,100071.63
2024-01-20T22:28:04.992Z,100065.38
2024-01-20T22:30:13.389Z,100068.69
2024-01-20T22:32:14.987Z,100071.19
2024-01-20T22:34:16.574Z,100076.00
2024-01-20T22:36:18.213Z,100071.81
2024-01-20T22:38:19.725Z,100067.84
2024-01-20T22:41:05.113Z,100067.78
2024-01-20T22:43:06.550Z,100061.09
2024-01-20T22:45:10.813Z,100057.09
2024-01-20T22:47:12.567Z,100073.00
2024-01-20T22:49:14.116Z,100070.88
2024-01-20T22:51:23.536Z,100064.78
2024-01-20T22:53:30.744Z,100062.50
2024-01-20T22:55:32.283Z,100059.34
2024-01-20T22:57:33.922Z,100056.81
2024-01-20T22:59:39.594Z,100050.09
2024-01-20T23:01:41.129Z,100054.69
2024-01-20T23:03:43.119Z,100056.59
2024-01-20T23:05:45.663Z,100055.94
2024-01-20T23:07:47.242Z,100051.56
2024-01-20T23:09:48.825Z,100052.81
2024-01-20T23:11:50.360Z,100059.28
2024-01-20T23:13:51.854Z,100053.00
2024-01-20T23:15:55.264Z,100050.25
2024-01-20T23:17:56.827Z,100053.81
2024-01-20T23:19:58.298Z,100057.19
2024-01-20T23:22:00.687Z,100056.38
2024-01-20T23:24:02.160Z,100058.88
2024-01-20T23:26:05.069Z,100052.59
2024-01-20T23:28:06.921Z,100058.03
2024-01-20T23:30:08.675Z,100058.03
2024-01-20T23:32:10.280Z,100054.03
2024-01-20T23:34:12.724Z,100047.13
2024-01-20T23:36:14.740Z,100052.75
2024-01-20T23:38:16.289Z,100053.81
2024-01-20T23:40:17.776Z,100052.97
2024-01-20T23:42:19.684Z,100052.34
2024-01-20T23:44:21.203Z,100046.91
2024-01-20T23:46:22.728Z,100041.47
2024-01-20T23:48:24.280Z,100035.41
2024-01-20T23:50:25.935Z,100038.28
2024-01-20T23:52:27.586Z,100041.41
2024-01-20T23:54:29.468Z,100042.66
2024-01-20T23:56:30.948Z,100044.75